Time;durP1;ratioP1;P1;durP2;ratioP2;P2;SDS_P1;SDS_P2;PMS_P1;PMS_P2;Temp;Humidity;BMP_temperature;BMP_pressure;BME280_temperature;BME280_humidity;BME280_pressure;Samples;Min_cycle;Max_cycle;Signal;HPM_P1;HPM_P2
2022/06/21 00:00:47;;;;;;;10.37;2.77;;;13.50;99.90;;;;;;4956425;28;20230;-49
2022/06/21 00:03:19;;;;;;;12.57;2.80;;;13.40;99.90;;;;;;4958426;28;20253;-49
2022/06/21 00:05:49;;;;;;;10.03;2.97;;;13.40;99.90;;;;;;4959947;28;20785;-49
2022/06/21 00:08:21;;;;;;;13.40;3.40;;;13.50;99.90;;;;;;4954434;28;21722;-49
2022/06/21 00:10:49;;;;;;;12.20;2.97;;;13.50;99.90;;;;;;4957701;28;20227;-49
2022/06/21 00:13:21;;;;;;;12.10;3.30;;;13.40;99.90;;;;;;4958046;28;20236;-50
2022/06/21 00:15:51;;;;;;;11.40;3.00;;;13.40;99.90;;;;;;4956147;28;20305;-50
2022/06/21 00:18:22;;;;;;;9.20;2.70;;;13.40;99.90;;;;;;4952887;28;20884;-49
2022/06/21 00:20:50;;;;;;;10.33;2.90;;;13.40;99.90;;;;;;4956921;28;20683;-48
2022/06/21 00:23:22;;;;;;;10.07;3.50;;;13.40;99.90;;;;;;4959357;28;20229;-49
2022/06/21 00:25:51;;;;;;;11.13;2.67;;;13.30;99.90;;;;;;4957308;28;20728;-48
2022/06/21 00:28:20;;;;;;;11.30;3.07;;;13.40;99.90;;;;;;4954487;28;20241;-48
2022/06/21 00:30:50;;;;;;;14.93;3.53;;;13.40;99.90;;;;;;4956249;28;20266;-49
2022/06/21 00:33:22;;;;;;;14.00;3.27;;;13.30;99.90;;;;;;4958121;28;20246;-49
2022/06/21 00:35:53;;;;;;;12.20;3.60;;;13.30;99.90;;;;;;4956576;28;20244;-50
2022/06/21 00:38:27;;;;;;;10.10;2.70;;;13.30;99.90;;;;;;4952980;28;20663;-50
2022/06/21 00:40:57;;;;;;;8.77;2.83;;;13.30;99.90;;;;;;4957567;28;20287;-49
2022/06/21 00:43:29;;;;;;;12.10;3.10;;;13.20;99.90;;;;;;4956745;28;20219;-48
2022/06/21 00:45:59;;;;;;;14.07;3.07;;;13.30;99.90;;;;;;4948522;28;20634;-50
2022/06/21 00:48:33;;;;;;;10.10;2.90;;;13.20;99.90;;;;;;4943354;28;20227;-50
2022/06/21 00:51:08;;;;;;;15.47;3.17;;;13.20;99.90;;;;;;4946469;28;20281;-49
2022/06/21 00:53:41;;;;;;;12.47;3.23;;;13.20;99.90;;;;;;4947697;28;20242;-49
2022/06/21 00:56:15;;;;;;;13.20;3.10;;;13.10;99.90;;;;;;4956084;28;20245;-51
2022/06/21 00:58:43;;;;;;;11.50;3.30;;;13.10;99.90;;;;;;4950220;28;20706;-49
2022/06/21 01:01:20;;;;;;;10.83;2.87;;;13.10;99.90;;;;;;4958091;28;20222;-50
2022/06/21 01:03:53;;;;;;;6.93;2.30;;;13.10;99.90;;;;;;4945569;28;20256;-50
2022/06/21 01:06:25;;;;;;;8.93;2.63;;;13.10;99.90;;;;;;4946320;28;20995;-49
2022/06/21 01:09:03;;;;;;;8.77;3.20;;;13.10;99.90;;;;;;4949213;28;20308;-51
2022/06/21 01:11:35;;;;;;;9.93;2.97;;;13.10;99.90;;;;;;4950049;28;20253;-51
2022/06/21 01:14:04;;;;;;;10.00;3.10;;;13.10;99.90;;;;;;4950182;28;20702;-49
2022/06/21 01:16:34;;;;;;;9.83;2.57;;;13.00;99.90;;;;;;4949613;29;20237;-48
2022/06/21 01:19:03;;;;;;;10.30;2.87;;;13.00;99.90;;;;;;4948426;29;20239;-49
2022/06/21 01:21:32;;;;;;;12.20;2.90;;;13.00;99.90;;;;;;4949693;28;20245;-51
2022/06/21 01:24:11;;;;;;;10.47;2.97;;;13.00;99.90;;;;;;4949011;28;20266;-49
2022/06/21 01:26:48;;;;;;;9.53;3.10;;;13.00;99.90;;;;;;4949836;29;20290;-50
2022/06/21 01:29:28;;;;;;;10.57;2.93;;;13.00;99.90;;;;;;4948018;28;20305;-50
2022/06/21 01:31:59;;;;;;;8.40;2.67;;;12.90;99.90;;;;;;4949023;28;20239;-49
2022/06/21 01:34:29;;;;;;;10.17;3.67;;;12.90;99.90;;;;;;4949104;28;20337;-50
2022/06/21 01:37:05;;;;;;;11.63;2.80;;;12.90;99.90;;;;;;4949159;29;20714;-48
2022/06/21 01:39:43;;;;;;;10.47;3.20;;;12.90;99.90;;;;;;4948063;29;20328;-49
2022/06/21 01:42:18;;;;;;;7.93;2.70;;;12.90;99.90;;;;;;4949710;29;20414;-50
2022/06/21 01:44:49;;;;;;;11.27;3.17;;;12.90;99.90;;;;;;4949190;28;20241;-48
2022/06/21 01:47:22;;;;;;;10.10;2.73;;;12.80;99.90;;;;;;4949793;28;20313;-49
2022/06/21 01:49:55;;;;;;;6.57;2.53;;;12.80;99.90;;;;;;4947472;28;20801;-49
2022/06/21 01:52:27;;;;;;;10.70;2.70;;;12.90;99.90;;;;;;4948257;28;20236;-50
2022/06/21 01:55:00;;;;;;;9.23;2.90;;;12.90;99.90;;;;;;4948638;29;20251;-50
2022/06/21 01:57:31;;;;;;;10.10;3.13;;;12.80;99.90;;;;;;4948902;29;20234;-48
2022/06/21 02:00:20;;;;;;;9.33;3.23;;;12.80;99.90;;;;;;4947935;28;20230;-50
2022/06/21 02:02:59;;;;;;;10.73;2.93;;;12.80;99.90;;;;;;4948092;28;20321;-50
2022/06/21 02:05:32;;;;;;;8.27;2.63;;;12.80;99.90;;;;;;4948634;29;20250;-50
2022/06/21 02:08:06;;;;;;;12.00;3.33;;;12.70;99.90;;;;;;4950295;28;20831;-48
2022/06/21 02:10:39;;;;;;;11.27;3.03;;;12.70;99.90;;;;;;4959568;28;20743;-50
2022/06/21 02:13:14;;;;;;;9.37;2.90;;;12.70;99.90;;;;;;4960870;28;20245;-49
2022/06/21 02:15:46;;;;;;;11.23;3.23;;;12.60;99.90;;;;;;4959035;28;20335;-50
2022/06/21 02:18:16;;;;;;;9.60;2.77;;;12.60;99.90;;;;;;4959272;28;20237;-51
2022/06/21 02:20:50;;;;;;;9.40;3.17;;;12.60;99.90;;;;;;4960690;28;20241;-49
2022/06/21 02:23:22;;;;;;;12.37;3.00;;;12.60;99.90;;;;;;4960416;28;20709;-49
2022/06/21 02:25:52;;;;;;;8.67;2.90;;;12.60;99.90;;;;;;4961963;28;20590;-49
2022/06/21 02:28:23;;;;;;;7.63;2.63;;;12.60;99.90;;;;;;4959306;28;20601;-50
2022/06/21 02:30:54;;;;;;;10.30;2.57;;;12.50;99.90;;;;;;4957478;28;20301;-50
2022/06/21 02:33:27;;;;;;;8.67;3.10;;;12.50;99.90;;;;;;4959633;28;20253;-49
2022/06/21 02:35:58;;;;;;;9.87;2.83;;;12.50;99.90;;;;;;4959684;28;20859;-49
2022/06/21 02:38:31;;;;;;;13.13;2.80;;;12.50;99.90;;;;;;4956005;28;20724;-48
2022/06/21 02:41:06;;;;;;;9.83;3.30;;;12.50;99.90;;;;;;4960707;28;20225;-49
2022/06/21 02:43:39;;;;;;;9.97;3.03;;;12.50;99.90;;;;;;4960638;28;20238;-50
2022/06/21 02:46:10;;;;;;;9.23;3.10;;;12.50;99.90;;;;;;4960781;28;20292;-49
2022/06/21 02:48:43;;;;;;;6.97;2.70;;;12.40;99.90;;;;;;4958591;28;20238;-49
2022/06/21 02:51:17;;;;;;;7.90;2.80;;;12.50;99.90;;;;;;4959658;28;20236;-50
2022/06/21 02:53:53;;;;;;;10.00;3.10;;;12.40;99.90;;;;;;4959019;28;20249;-49
2022/06/21 02:56:25;;;;;;;9.30;2.60;;;12.50;99.90;;;;;;4958330;28;20273;-49
2022/06/21 02:58:58;;;;;;;9.43;2.90;;;12.40;99.90;;;;;;4957424;28;20229;-51
2022/06/21 03:01:30;;;;;;;9.83;2.83;;;12.40;99.90;;;;;;4959840;28;20373;-49
2022/06/21 03:03:59;;;;;;;15.17;3.30;;;12.40;99.90;;;;;;4956150;28;20772;-50
2022/06/21 03:06:31;;;;;;;10.10;3.17;;;12.40;99.90;;;;;;4958624;28;20245;-48
2022/06/21 03:09:03;;;;;;;8.43;2.80;;;12.30;99.90;;;;;;4957401;28;20257;-52
2022/06/21 03:11:36;;;;;;;8.23;2.93;;;12.40;99.90;;;;;;4958194;28;20328;-50
2022/06/21 03:14:09;;;;;;;9.83;3.23;;;12.40;99.90;;;;;;4956587;28;20794;-49
2022/06/21 03:16:37;;;;;;;8.47;2.70;;;12.40;99.90;;;;;;4958204;28;20293;-50
2022/06/21 03:19:15;;;;;;;7.70;2.73;;;12.40;99.90;;;;;;4958506;28;20230;-50
2022/06/21 03:21:43;;;;;;;11.53;3.10;;;12.40;99.90;;;;;;4959884;28;20249;-51
2022/06/21 03:24:17;;;;;;;8.63;2.80;;;12.40;99.90;;;;;;4959648;28;20223;-49
2022/06/21 03:26:50;;;;;;;11.67;3.33;;;12.40;99.90;;;;;;4959276;28;20236;-49
2022/06/21 03:29:20;;;;;;;6.87;2.80;;;12.50;99.90;;;;;;4957318;28;20789;-51
2022/06/21 03:31:50;;;;;;;9.63;3.07;;;12.50;99.90;;;;;;4959098;28;20329;-52
2022/06/21 03:34:22;;;;;;;9.00;2.73;;;12.60;99.90;;;;;;4946569;28;20713;-50
2022/06/21 03:36:50;;;;;;;9.70;3.10;;;12.60;99.90;;;;;;4947432;28;20359;-50
2022/06/21 03:41:42;;;;;;;9.03;3.13;;;12.60;99.90;;;;;;4946336;29;20222;-50
2022/06/21 03:42:09;;;;;;;11.50;3.27;;;12.70;99.90;;;;;;4947355;29;20234;-50
2022/06/21 03:44:44;;;;;;;11.17;3.80;;;12.70;99.90;;;;;;4946839;29;20226;-49
2022/06/21 03:47:18;;;;;;;10.37;2.90;;;12.80;99.90;;;;;;4947591;28;20265;-50
2022/06/21 03:49:54;;;;;;;7.97;2.70;;;12.80;99.90;;;;;;4946151;29;20392;-50
2022/06/21 03:55:37;;;;;;;8.30;3.00;;;12.90;99.90;;;;;;5111875;27;20695;-50
2022/06/21 03:58:11;;;;;;;11.00;3.33;;;12.90;99.90;;;;;;5110569;28;20525;-51
2022/06/21 04:00:44;;;;;;;11.53;3.23;;;13.00;99.90;;;;;;5091841;28;20714;-47
2022/06/21 04:03:20;;;;;;;9.43;2.87;;;13.00;99.90;;;;;;5080133;27;20254;-48
2022/06/21 04:05:54;;;;;;;11.57;3.03;;;13.10;99.90;;;;;;5047746;28;20702;-49
2022/06/21 04:08:26;;;;;;;7.70;2.97;;;13.20;99.90;;;;;;5048491;28;20991;-48
2022/06/21 04:11:06;;;;;;;9.63;2.90;;;13.30;99.90;;;;;;5050421;28;20317;-51
2022/06/21 04:13:39;;;;;;;6.90;2.80;;;13.30;99.90;;;;;;5047593;28;20288;-49
2022/06/21 04:16:13;;;;;;;7.20;3.03;;;13.50;99.90;;;;;;5048353;28;20235;-49
2022/06/21 04:18:46;;;;;;;9.93;3.30;;;13.60;99.90;;;;;;5048446;28;20293;-51
2022/06/21 04:21:19;;;;;;;8.70;2.80;;;13.70;99.90;;;;;;5047847;28;20707;-50
2022/06/21 04:23:51;;;;;;;9.63;2.87;;;13.70;99.90;;;;;;5047647;28;20322;-48
2022/06/21 04:26:27;;;;;;;10.13;3.13;;;13.70;99.90;;;;;;5053047;28;20709;-49
2022/06/21 04:29:01;;;;;;;7.70;2.73;;;14.00;99.90;;;;;;5046488;28;20226;-48
2022/06/21 04:31:34;;;;;;;10.73;2.87;;;14.00;99.90;;;;;;5047623;28;20223;-48
2022/06/21 04:34:10;;;;;;;7.80;2.93;;;14.20;99.90;;;;;;5040261;28;20259;-49
2022/06/21 04:36:43;;;;;;;9.17;2.70;;;14.20;99.90;;;;;;5041327;28;20320;-50
2022/06/21 04:39:18;;;;;;;6.50;2.57;;;14.30;99.90;;;;;;5039921;28;20775;-48
2022/06/21 04:41:53;;;;;;;8.97;3.07;;;14.40;99.90;;;;;;5041276;28;20248;-50
2022/06/21 04:44:28;;;;;;;9.93;2.73;;;14.50;99.90;;;;;;5045290;28;20786;-51
2022/06/21 04:47:00;;;;;;;8.40;2.33;;;14.60;99.90;;;;;;5043597;28;20813;-48
2022/06/21 04:49:34;;;;;;;9.27;2.53;;;14.60;99.90;;;;;;5039287;28;20327;-50
2022/06/21 04:52:08;;;;;;;11.70;3.57;;;14.80;99.90;;;;;;5040342;28;20230;-49
2022/06/21 04:54:39;;;;;;;9.93;3.20;;;15.00;99.90;;;;;;5039579;28;20243;-49
2022/06/21 04:57:13;;;;;;;8.63;2.60;;;15.10;99.90;;;;;;5041596;28;20232;-49
2022/06/21 04:59:44;;;;;;;9.97;3.00;;;15.30;99.90;;;;;;5040131;28;20707;-48
2022/06/21 05:02:18;;;;;;;9.70;2.80;;;15.30;99.90;;;;;;5042046;28;20766;-51
2022/06/21 05:04:49;;;;;;;7.07;2.90;;;15.40;99.90;;;;;;5035757;28;20236;-49
2022/06/21 05:07:21;;;;;;;9.40;2.87;;;15.50;99.90;;;;;;5028536;28;20667;-50
2022/06/21 05:09:51;;;;;;;11.37;3.30;;;15.60;99.90;;;;;;5025859;28;20563;-49
2022/06/21 05:12:24;;;;;;;8.90;2.53;;;15.80;99.90;;;;;;5027975;28;20265;-49
2022/06/21 05:14:59;;;;;;;8.03;2.50;;;15.90;99.90;;;;;;5026419;28;20691;-49
2022/06/21 05:17:28;;;;;;;12.87;2.97;;;15.90;99.90;;;;;;5026838;28;20716;-49
2022/06/21 05:20:02;;;;;;;8.43;2.87;;;16.10;99.90;;;;;;5026194;28;20675;-50
2022/06/21 05:22:33;;;;;;;6.23;2.43;;;16.20;99.90;;;;;;5026785;28;20708;-49
2022/06/21 05:25:02;;;;;;;10.43;2.43;;;16.30;99.90;;;;;;5026945;28;20787;-48
2022/06/21 05:27:45;;;;;;;10.53;2.73;;;16.50;99.90;;;;;;5024089;28;20229;-50
2022/06/21 05:30:17;;;;;;;8.27;2.33;;;16.60;99.90;;;;;;5028733;28;20632;-49
2022/06/21 05:32:50;;;;;;;7.27;2.03;;;16.80;99.90;;;;;;5030279;28;20704;-49
2022/06/21 05:35:23;;;;;;;7.87;2.03;;;16.90;99.90;;;;;;5029744;28;20714;-49
2022/06/21 05:37:56;;;;;;;10.47;2.50;;;17.10;99.90;;;;;;5033908;28;20306;-48
2022/06/21 05:40:31;;;;;;;6.97;2.23;;;17.20;99.90;;;;;;5027811;28;20753;-50
2022/06/21 05:43:01;;;;;;;7.83;2.20;;;17.40;99.90;;;;;;5031369;28;20307;-51
2022/06/21 05:45:35;;;;;;;14.67;2.83;;;17.60;99.90;;;;;;5031108;28;20310;-49
2022/06/21 05:48:09;;;;;;;5.47;2.07;;;17.70;99.90;;;;;;5029590;28;20330;-47
2022/06/21 05:50:37;;;;;;;9.23;2.33;;;17.80;99.90;;;;;;5031336;28;20731;-48
2022/06/21 05:53:12;;;;;;;8.50;2.03;;;17.90;99.90;;;;;;5031660;28;20738;-49
2022/06/21 05:55:44;;;;;;;7.80;2.20;;;18.10;99.90;;;;;;5031428;28;20232;-50
2022/06/21 05:58:18;;;;;;;9.20;2.57;;;18.30;99.90;;;;;;5028861;28;20267;-50
2022/06/21 06:00:51;;;;;;;5.07;1.83;;;18.40;99.90;;;;;;5030622;28;20235;-47
2022/06/21 06:03:33;;;;;;;8.50;2.10;;;18.60;99.90;;;;;;5030029;28;20718;-48
2022/06/21 06:06:05;;;;;;;8.83;2.27;;;18.70;99.90;;;;;;5030263;28;20254;-49
2022/06/21 06:08:37;;;;;;;6.43;2.27;;;18.80;99.90;;;;;;5028576;28;20244;-47
2022/06/21 06:11:11;;;;;;;7.53;2.20;;;19.00;99.90;;;;;;5030978;28;20237;-48
2022/06/21 06:13:42;;;;;;;7.77;2.10;;;19.20;99.90;;;;;;5029915;28;20232;-47
2022/06/21 06:16:27;;;;;;;6.30;1.73;;;19.50;99.90;;;;;;5030511;28;20234;-47
2022/06/21 06:19:02;;;;;;;8.97;2.30;;;19.50;99.90;;;;;;5028650;28;20595;-47
2022/06/21 06:21:36;;;;;;;8.77;2.57;;;19.70;99.90;;;;;;5027930;28;20837;-47
2022/06/21 06:24:13;;;;;;;5.77;1.80;;;20.00;99.90;;;;;;5030583;28;20223;-45
2022/06/21 06:26:44;;;;;;;8.23;2.20;;;20.00;99.90;;;;;;5032295;28;20579;-47
2022/06/21 06:29:18;;;;;;;9.37;2.10;;;20.00;99.90;;;;;;5030989;28;20258;-46
2022/06/21 06:31:52;;;;;;;8.67;2.17;;;19.50;99.90;;;;;;5030386;28;20236;-47
2022/06/21 06:34:26;;;;;;;8.50;1.97;;;19.10;99.90;;;;;;5027504;28;20326;-46
2022/06/21 06:36:57;;;;;;;8.50;1.90;;;19.10;99.90;;;;;;5029273;28;20258;-47
2022/06/21 06:39:27;;;;;;;8.77;2.17;;;18.90;99.90;;;;;;5027050;28;20248;-48
2022/06/21 06:42:01;;;;;;;6.87;1.87;;;18.80;99.90;;;;;;5031404;28;20232;-46
2022/06/21 06:44:36;;;;;;;6.83;2.20;;;18.70;99.90;;;;;;5029168;28;20258;-49
2022/06/21 06:47:05;;;;;;;5.80;1.70;;;18.70;99.90;;;;;;5029932;28;20297;-49
2022/06/21 06:49:38;;;;;;;5.20;1.80;;;18.50;99.90;;;;;;5030486;28;20245;-47
2022/06/21 06:52:12;;;;;;;4.87;1.47;;;18.70;99.90;;;;;;5031532;28;20322;-46
2022/06/21 06:54:46;;;;;;;5.33;1.60;;;19.30;99.90;;;;;;5030325;28;20278;-47
2022/06/21 06:57:21;;;;;;;8.60;1.97;;;20.30;99.90;;;;;;5028069;28;20641;-50
2022/06/21 06:59:51;;;;;;;7.90;2.20;;;20.70;99.90;;;;;;5027556;28;20227;-50
2022/06/21 07:02:26;;;;;;;9.67;2.00;;;20.40;99.90;;;;;;5031187;28;20230;-48
2022/06/21 07:05:05;;;;;;;5.50;1.70;;;20.10;99.90;;;;;;5029185;28;21008;-47
2022/06/21 07:07:42;;;;;;;6.37;1.90;;;20.30;99.90;;;;;;5031552;28;20727;-48
2022/06/21 07:10:16;;;;;;;6.77;1.87;;;20.80;99.90;;;;;;5031123;28;20734;-49
2022/06/21 07:12:44;;;;;;;6.57;1.43;;;21.40;99.90;;;;;;5032555;28;20235;-48
2022/06/21 07:15:14;;;;;;;5.73;1.93;;;21.50;99.90;;;;;;5048499;28;20237;-49
2022/06/21 07:17:48;;;;;;;7.13;2.47;;;22.00;99.90;;;;;;5057472;28;20214;-47
2022/06/21 07:20:21;;;;;;;6.63;1.80;;;22.30;99.90;;;;;;5058419;28;20292;-48
2022/06/21 07:22:51;;;;;;;7.37;2.00;;;22.30;99.90;;;;;;5059703;28;20547;-48
2022/06/21 07:25:27;;;;;;;6.00;1.93;;;22.70;99.90;;;;;;5059891;28;20717;-49
2022/06/21 07:27:58;;;;;;;7.57;1.80;;;22.80;99.90;;;;;;5052417;28;20220;-48
2022/06/21 07:30:38;;;;;;;4.33;1.60;;;22.50;99.90;;;;;;5052561;28;20266;-49
2022/06/21 07:33:12;;;;;;;6.93;1.80;;;22.10;99.90;;;;;;5053415;28;20374;-47
2022/06/21 07:35:46;;;;;;;6.17;1.73;;;21.80;99.90;;;;;;5051939;28;20229;-49
2022/06/21 07:38:20;;;;;;;5.13;1.70;;;21.50;99.90;;;;;;5050295;28;20235;-48
2022/06/21 07:40:54;;;;;;;4.70;1.57;;;21.80;99.90;;;;;;5052389;28;20289;-47
2022/06/21 07:43:28;;;;;;;5.07;1.53;;;22.40;99.90;;;;;;5056732;28;20670;-48
2022/06/21 07:46:01;;;;;;;4.47;1.50;;;22.60;99.90;;;;;;5056424;28;20194;-48
2022/06/21 07:48:38;;;;;;;6.40;1.43;;;22.80;99.90;;;;;;5053858;28;20270;-50
2022/06/21 07:51:09;;;;;;;4.23;1.40;;;23.00;99.90;;;;;;5055189;28;20675;-49
2022/06/21 07:53:44;;;;;;;5.70;1.63;;;23.40;99.90;;;;;;5056106;28;20246;-49
2022/06/21 07:56:17;;;;;;;7.00;2.07;;;23.80;99.90;;;;;;5055680;28;20255;-49
2022/06/21 07:58:53;;;;;;;4.73;1.73;;;24.20;99.90;;;;;;5056784;28;20288;-49
2022/06/21 08:07:07;;;;;;;5.20;1.53;;;24.60;99.90;;;;;;5012997;28;20232;-49
2022/06/21 08:09:43;;;;;;;5.20;1.70;;;24.90;99.90;;;;;;5047572;28;20242;-50
2022/06/21 08:12:13;;;;;;;5.37;1.50;;;25.30;99.90;;;;;;5038442;28;20236;-48
2022/06/21 08:14:41;;;;;;;4.53;1.73;;;25.30;99.90;;;;;;5043984;28;20619;-48
2022/06/21 08:17:20;;;;;;;6.60;1.60;;;24.90;99.90;;;;;;5056443;28;20662;-47
2022/06/21 08:19:54;;;;;;;4.57;1.40;;;24.10;99.90;;;;;;5053997;28;20260;-48
2022/06/21 08:22:27;;;;;;;7.53;1.50;;;24.00;99.90;;;;;;5048778;28;20217;-50
2022/06/21 08:24:59;;;;;;;6.03;1.97;;;24.40;99.90;;;;;;5043328;28;20313;-50
2022/06/21 08:27:35;;;;;;;4.27;1.50;;;24.90;99.90;;;;;;5051355;28;20227;-50
2022/06/21 08:30:12;;;;;;;4.30;1.23;;;24.50;99.90;;;;;;5037765;28;20233;-48
2022/06/21 08:32:52;;;;;;;7.17;1.73;;;24.30;99.90;;;;;;5048858;28;20234;-48
2022/06/21 08:35:28;;;;;;;6.57;1.67;;;24.50;99.90;;;;;;5055457;28;20285;-50
2022/06/21 08:38:02;;;;;;;3.87;1.50;;;24.80;99.90;;;;;;5046968;28;20718;-51
2022/06/21 08:40:58;;;;;;;5.50;1.70;;;25.20;99.90;;;;;;5051254;28;20249;-49
2022/06/21 08:44:01;;;;;;;5.50;1.53;;;25.40;99.90;;;;;;5046490;28;20609;-51
2022/06/21 08:46:58;;;;;;;4.97;1.80;;;25.70;99.90;;;;;;5056723;28;20233;-52
2022/06/21 08:49:58;;;;;;;4.87;1.23;;;26.10;99.90;;;;;;5050369;28;20793;-53
2022/06/21 08:52:42;;;;;;;5.07;1.67;;;26.10;99.90;;;;;;5052331;28;20257;-54
2022/06/21 08:55:20;;;;;;;3.20;1.30;;;26.50;99.90;;;;;;5055998;28;20254;-51
2022/06/21 08:58:01;;;;;;;5.30;1.70;;;26.60;99.90;;;;;;5052342;28;20239;-51
2022/06/21 09:00:36;;;;;;;4.57;1.60;;;26.70;99.90;;;;;;5047413;28;20234;-46
2022/06/21 09:03:15;;;;;;;3.53;1.10;;;26.50;99.90;;;;;;5026283;28;20239;-47
2022/06/21 09:05:58;;;;;;;5.13;1.50;;;26.20;99.90;;;;;;5035260;28;20242;-50
2022/06/21 09:08:46;;;;;;;4.23;1.43;;;26.30;99.90;;;;;;5020855;28;20723;-47
2022/06/21 09:11:30;;;;;;;3.60;1.27;;;26.60;99.90;;;;;;5024500;28;20710;-50
2022/06/21 09:14:22;;;;;;;5.07;1.30;;;26.40;99.90;;;;;;5027928;28;20237;-49
2022/06/21 09:16:59;;;;;;;3.23;1.23;;;26.50;99.90;;;;;;5028485;28;20262;-48
2022/06/21 09:19:39;;;;;;;5.53;1.50;;;27.00;99.90;;;;;;5026224;28;20247;-48
2022/06/21 09:22:16;;;;;;;5.30;1.50;;;26.80;99.90;;;;;;5024488;28;20247;-50
2022/06/21 09:24:55;;;;;;;4.10;1.40;;;26.20;99.90;;;;;;5025021;28;20246;-49
2022/06/21 09:27:27;;;;;;;3.87;1.50;;;25.50;99.90;;;;;;5030411;28;20856;-51
2022/06/21 09:30:05;;;;;;;5.33;1.60;;;24.80;99.90;;;;;;5024005;28;20243;-48
2022/06/21 09:32:45;;;;;;;5.17;1.40;;;24.40;99.90;;;;;;5040440;28;20624;-49
2022/06/21 09:35:28;;;;;;;4.37;1.63;;;24.50;99.90;;;;;;5057451;28;20715;-49
2022/06/21 09:38:12;;;;;;;3.87;1.30;;;25.60;99.90;;;;;;5048752;28;20230;-50
2022/06/21 09:40:46;;;;;;;5.23;1.50;;;26.70;99.90;;;;;;5052128;28;20245;-49
2022/06/21 09:43:29;;;;;;;4.97;1.90;;;27.00;99.90;;;;;;5035999;28;20237;-49
2022/06/21 09:46:07;;;;;;;4.77;1.53;;;26.40;99.90;;;;;;5053495;28;20234;-49
2022/06/21 09:48:43;;;;;;;5.47;1.70;;;25.50;99.90;;;;;;5057521;28;20244;-48
2022/06/21 09:51:43;;;;;;;3.53;1.20;;;25.10;99.90;;;;;;5060318;28;20238;-46
2022/06/21 09:54:33;;;;;;;4.43;1.30;;;25.90;99.90;;;;;;5057655;28;20273;-51
2022/06/21 09:57:15;;;;;;;4.90;1.43;;;26.70;99.90;;;;;;5058436;28;20234;-48
2022/06/21 09:59:54;;;;;;;3.87;1.40;;;27.10;99.90;;;;;;5057013;28;20239;-49
2022/06/21 10:02:31;;;;;;;3.77;1.20;;;27.50;99.90;;;;;;5054625;28;20241;-48
2022/06/21 10:05:07;;;;;;;5.57;1.47;;;27.30;99.90;;;;;;5050758;28;20780;-47
2022/06/21 10:08:00;;;;;;;5.57;1.43;;;26.50;99.90;;;;;;5042129;28;20682;-51
2022/06/21 10:10:41;;;;;;;4.10;1.40;;;25.70;99.90;;;;;;5043328;28;20242;-50
2022/06/21 10:13:34;;;;;;;2.53;1.30;;;24.90;99.90;;;;;;5045030;28;20266;-49
2022/06/21 10:16:24;;;;;;;5.07;1.60;;;24.90;99.90;;;;;;5049010;28;20797;-50
2022/06/21 10:19:03;;;;;;;3.47;1.37;;;26.10;99.90;;;;;;5047752;28;20693;-49
2022/06/21 10:22:09;;;;;;;2.83;1.20;;;27.10;99.90;;;;;;5046383;28;20226;-47
2022/06/21 10:24:59;;;;;;;3.80;1.20;;;27.90;99.90;;;;;;5046788;28;20719;-46
2022/06/21 10:27:56;;;;;;;3.80;1.27;;;28.70;99.90;;;;;;5034843;28;20723;-50
2022/06/21 10:30:54;;;;;;;4.27;1.37;;;28.70;99.90;;;;;;5040314;28;20241;-49
2022/06/21 10:33:49;;;;;;;4.67;1.57;;;29.10;99.30;;;;;;5048702;28;20241;-49
2022/06/21 10:36:40;;;;;;;3.83;1.13;;;28.00;98.60;;;;;;5035481;28;20240;-48
2022/06/21 10:39:21;;;;;;;4.37;1.53;;;27.30;99.90;;;;;;5049215;28;21331;-47
2022/06/21 10:45:06;;;;;;;5.47;1.50;;;27.90;99.90;;;;;;5044124;28;20229;-48
2022/06/21 10:47:52;;;;;;;7.17;1.40;;;28.60;99.90;;;;;;5036197;28;20235;-49
2022/06/21 10:50:37;;;;;;;3.27;1.33;;;28.70;99.90;;;;;;5044284;28;20281;-49
2022/06/21 10:53:23;;;;;;;4.17;1.13;;;29.00;99.90;;;;;;5048300;28;20678;-52
2022/06/21 10:58:54;;;;;;;2.40;1.10;;;29.40;98.50;;;;;;5054118;28;20239;-50
2022/06/21 11:01:31;;;;;;;3.57;1.30;;;29.30;97.70;;;;;;5046256;28;20250;-49
2022/06/21 11:04:29;;;;;;;3.53;1.20;;;29.00;98.50;;;;;;5043721;28;20240;-49
2022/06/21 11:07:04;;;;;;;3.47;1.10;;;29.00;98.40;;;;;;5048549;28;20232;-48
2022/06/21 11:09:41;;;;;;;3.63;1.30;;;29.50;96.20;;;;;;5051116;28;20633;-50
2022/06/21 11:15:16;;;;;;;3.63;1.40;;;29.50;96.10;;;;;;5046784;28;20596;-50
2022/06/21 11:17:51;;;;;;;6.80;1.70;;;28.70;97.60;;;;;;5050553;28;20613;-50
2022/06/21 11:20:29;;;;;;;3.57;1.40;;;27.60;98.10;;;;;;5049668;28;20254;-50
2022/06/21 11:23:11;;;;;;;4.50;1.30;;;27.40;98.60;;;;;;5048847;28;20239;-50
2022/06/21 11:25:48;;;;;;;3.90;1.40;;;28.00;99.00;;;;;;5045444;28;20239;-48
2022/06/21 11:28:34;;;;;;;5.10;1.23;;;28.50;98.00;;;;;;5045697;28;20320;-49
2022/06/21 11:31:10;;;;;;;3.87;1.27;;;29.30;97.20;;;;;;5045035;28;20238;-50
2022/06/21 11:33:50;;;;;;;4.70;1.80;;;29.40;97.40;;;;;;5046402;28;20228;-50
2022/06/21 11:36:27;;;;;;;3.30;1.30;;;29.20;96.80;;;;;;5046800;28;20233;-49
2022/06/21 11:39:18;;;;;;;3.97;1.20;;;29.40;96.90;;;;;;5045948;28;20714;-50
2022/06/21 11:42:05;;;;;;;4.43;1.40;;;29.70;97.70;;;;;;5048321;28;20223;-48
2022/06/21 11:45:07;;;;;;;2.90;1.00;;;29.80;96.10;;;;;;5043070;28;20311;-50
2022/06/21 11:48:07;;;;;;;3.83;1.37;;;29.20;96.40;;;;;;5037229;28;20714;-49
2022/06/21 11:50:49;;;;;;;2.23;1.00;;;28.50;96.60;;;;;;5040782;28;20236;-48
2022/06/21 11:53:39;;;;;;;2.87;1.23;;;28.80;96.80;;;;;;5042827;28;20267;-49
2022/06/21 11:56:13;;;;;;;2.97;1.10;;;29.30;97.10;;;;;;5023903;28;20232;-49
2022/06/21 11:58:47;;;;;;;4.13;1.23;;;30.10;96.60;;;;;;5021645;28;20712;-48
2022/06/21 12:01:21;;;;;;;3.13;1.10;;;30.30;95.90;;;;;;5022870;28;20247;-48
2022/06/21 12:04:00;;;;;;;4.93;1.30;;;30.30;95.70;;;;;;5022892;28;20258;-47
2022/06/21 12:06:36;;;;;;;2.87;1.00;;;30.20;95.90;;;;;;5023241;28;20327;-49
2022/06/21 12:09:14;;;;;;;2.80;1.27;;;29.80;96.00;;;;;;5020776;28;20231;-50
2022/06/21 12:11:53;;;;;;;5.57;1.40;;;29.50;96.50;;;;;;5022881;28;20218;-49
2022/06/21 12:14:49;;;;;;;6.33;1.33;;;28.90;96.40;;;;;;5022270;28;20282;-48
2022/06/21 12:17:20;;;;;;;3.63;1.37;;;28.20;96.20;;;;;;5028702;28;20315;-49
2022/06/21 12:19:54;;;;;;;4.27;1.20;;;28.10;97.50;;;;;;5024996;28;20240;-50
2022/06/21 12:22:31;;;;;;;6.00;1.33;;;28.10;98.00;;;;;;5028402;28;20707;-49
2022/06/21 12:25:00;;;;;;;3.40;1.10;;;27.80;97.60;;;;;;5025300;28;20274;-48
2022/06/21 12:27:28;;;;;;;7.10;1.23;;;27.70;97.80;;;;;;5021234;28;20243;-49
2022/06/21 12:30:01;;;;;;;4.80;1.40;;;27.70;98.20;;;;;;5025475;28;20328;-49
2022/06/21 12:32:30;;;;;;;4.03;1.50;;;27.60;97.00;;;;;;5025705;28;20232;-50
2022/06/21 12:35:02;;;;;;;3.63;1.30;;;27.30;96.50;;;;;;5025228;28;20319;-50
2022/06/21 12:37:38;;;;;;;3.57;1.43;;;26.60;96.30;;;;;;5025788;28;20224;-49
2022/06/21 12:40:19;;;;;;;4.13;1.27;;;26.30;98.00;;;;;;5025407;28;20239;-48
2022/06/21 12:43:18;;;;;;;4.93;1.50;;;26.60;99.10;;;;;;5026810;28;20650;-50
2022/06/21 12:45:58;;;;;;;4.57;1.70;;;26.70;99.40;;;;;;5006353;28;20864;-49
2022/06/21 12:48:43;;;;;;;4.63;1.40;;;26.80;99.00;;;;;;5025216;28;20256;-48
2022/06/21 12:51:18;;;;;;;4.10;1.60;;;26.80;98.60;;;;;;5026148;28;20235;-48
2022/06/21 12:54:09;;;;;;;4.10;1.53;;;26.80;98.30;;;;;;5033308;28;20246;-49
2022/06/21 12:56:48;;;;;;;3.77;1.30;;;26.80;98.20;;;;;;5044541;28;20306;-50
2022/06/21 12:59:58;;;;;;;3.90;1.33;;;26.80;99.20;;;;;;5044175;28;20236;-48
2022/06/21 13:02:42;;;;;;;3.53;1.30;;;27.00;99.60;;;;;;5033669;28;20236;-49
2022/06/21 13:05:24;;;;;;;4.27;1.50;;;27.00;98.40;;;;;;5053076;28;20232;-49
2022/06/21 13:08:25;;;;;;;4.10;1.30;;;26.50;98.50;;;;;;5045288;28;20719;-47
2022/06/21 13:11:01;;;;;;;2.27;1.30;;;26.20;99.30;;;;;;5043904;28;20297;-47
2022/06/21 13:13:42;;;;;;;5.67;1.43;;;26.10;99.50;;;;;;5041335;28;20226;-49
2022/06/21 13:16:21;;;;;;;2.07;1.40;;;26.00;99.30;;;;;;5046092;28;20319;-49
2022/06/21 13:19:07;;;;;;;5.10;1.70;;;25.70;99.00;;;;;;5042490;28;20273;-48
2022/06/21 13:21:47;;;;;;;2.23;1.23;;;25.80;99.40;;;;;;5045193;28;20745;-49
2022/06/21 13:24:28;;;;;;;6.13;1.63;;;26.00;99.90;;;;;;5045810;28;20229;-49
2022/06/21 13:27:15;;;;;;;3.17;1.17;;;25.90;99.70;;;;;;5044545;28;20248;-49
2022/06/21 13:29:58;;;;;;;3.97;1.50;;;26.10;99.90;;;;;;5043356;28;20283;-47
2022/06/21 13:32:30;;;;;;;4.00;1.50;;;26.00;98.90;;;;;;5044378;28;20245;-50
2022/06/21 13:35:10;;;;;;;7.33;1.73;;;25.60;99.40;;;;;;5044721;28;20279;-50
2022/06/21 13:37:45;;;;;;;4.13;1.10;;;25.70;99.90;;;;;;5045032;28;20239;-47
2022/06/21 13:40:20;;;;;;;4.17;1.63;;;25.90;99.90;;;;;;5042952;28;20241;-50
2022/06/21 13:42:58;;;;;;;3.47;1.53;;;26.10;98.10;;;;;;5044975;28;20237;-48
2022/06/21 13:45:46;;;;;;;4.80;1.23;;;26.00;98.70;;;;;;5044892;28;20295;-51
2022/06/21 13:48:20;;;;;;;4.50;1.50;;;25.90;99.50;;;;;;5043444;28;20234;-50
2022/06/21 13:50:55;;;;;;;3.17;1.20;;;25.80;99.00;;;;;;5044406;28;20229;-50